createdAt,value
2022-12-01T00:00:09.150Z,11.10
2022-12-01T00:00:21.049Z,11.77
2022-12-01T00:00:32.800Z,11.77
2022-12-01T00:00:44.634Z,11.32
2022-12-01T00:00:56.342Z,11.23
2022-12-01T00:01:08.518Z,10.82
2022-12-01T00:01:20.469Z,12.50
2022-12-01T00:01:32.174Z,13.00
2022-12-01T00:01:44.112Z,12.75
2022-12-01T00:01:56.687Z,11.70
2022-12-01T00:02:08.625Z,11.10
2022-12-01T00:02:21.023Z,11.68
2022-12-01T00:02:33.052Z,11.57
2022-12-01T00:02:45.092Z,11.65
2022-12-01T00:02:56.957Z,11.35
2022-12-01T00:03:09.196Z,10.95
2022-12-01T00:03:21.282Z,11.02
2022-12-01T00:03:33.259Z,12.23
2022-12-01T00:03:45.136Z,12.93
2022-12-01T00:03:56.942Z,12.77
2022-12-01T00:04:08.699Z,12.95
2022-12-01T00:04:20.500Z,12.63
2022-12-01T00:04:32.332Z,15.15
2022-12-01T00:04:44.095Z,13.45
2022-12-01T00:04:56.329Z,14.43
2022-12-01T00:05:08.613Z,13.75
2022-12-01T00:05:20.506Z,14.43
2022-12-01T00:05:32.292Z,13.25
2022-12-01T00:05:44.080Z,12.43
2022-12-01T00:06:00.372Z,12.30
2022-12-01T00:06:16.529Z,12.77
2022-12-01T00:06:28.290Z,12.90
2022-12-01T00:06:41.432Z,13.38
2022-12-01T00:06:53.145Z,14.82
2022-12-01T00:07:04.860Z,15.32
2022-12-01T00:07:16.610Z,13.50
2022-12-01T00:07:28.375Z,14.38
2022-12-01T00:07:40.232Z,14.57
2022-12-01T00:07:52.185Z,13.57
2022-12-01T00:08:05.339Z,13.50
2022-12-01T00:08:17.177Z,14.90
2022-12-01T00:08:29.405Z,14.82
2022-12-01T00:08:41.553Z,12.90
2022-12-01T00:09:16.470Z,12.70
2022-12-01T00:09:48.980Z,14.07
2022-12-01T00:10:19.509Z,13.35
2022-12-01T00:10:33.719Z,12.73
2022-12-01T00:10:45.585Z,13.07
2022-12-01T00:11:04.958Z,14.05
2022-12-01T00:11:16.703Z,13.07
2022-12-01T00:11:28.525Z,13.05
2022-12-01T00:11:40.298Z,12.85
2022-12-01T00:11:52.030Z,12.25
2022-12-01T00:12:04.379Z,11.82
2022-12-01T00:12:16.096Z,13.55
2022-12-01T00:12:29.383Z,14.13
2022-12-01T00:12:43.556Z,14.95
2022-12-01T00:13:00.277Z,12.27
2022-12-01T00:13:12.021Z,13.27
2022-12-01T00:13:23.771Z,13.15
2022-12-01T00:13:35.755Z,12.85
2022-12-01T00:13:47.531Z,12.75
2022-12-01T00:13:59.329Z,12.23
2022-12-01T00:14:11.451Z,13.00
2022-12-01T00:14:23.269Z,13.80
2022-12-01T00:14:35.049Z,12.20
2022-12-01T00:14:54.730Z,11.73
2022-12-01T00:15:06.746Z,14.02
2022-12-01T00:15:18.516Z,13.77
2022-12-01T00:15:34.527Z,13.25
2022-12-01T00:15:46.390Z,12.52
2022-12-01T00:15:58.230Z,12.02
2022-12-01T00:16:16.895Z,14.82
2022-12-01T00:16:29.069Z,15.57
2022-12-01T00:16:41.129Z,13.93
2022-12-01T00:16:53.113Z,13.95
2022-12-01T00:17:05.818Z,13.43
2022-12-01T00:17:17.600Z,13.90
2022-12-01T00:17:30.117Z,13.68
2022-12-01T00:17:43.953Z,12.40
2022-12-01T00:17:56.002Z,12.55
2022-12-01T00:18:07.889Z,13.00
2022-12-01T00:18:19.714Z,13.27
2022-12-01T00:18:31.460Z,13.93
2022-12-01T00:18:43.636Z,14.25
2022-12-01T00:18:55.498Z,14.55
2022-12-01T00:19:07.607Z,14.23
2022-12-01T00:19:19.410Z,13.90
2022-12-01T00:19:32.148Z,13.57
2022-12-01T00:19:43.921Z,12.30
2022-12-01T00:19:56.305Z,13.57
2022-12-01T00:20:08.610Z,14.20
2022-12-01T00:20:20.559Z,13.60
2022-12-01T00:20:35.700Z,12.43
2022-12-01T00:20:50.938Z,16.15
2022-12-01T00:21:03.164Z,18.45
2022-12-01T00:21:16.207Z,15.52
2022-12-01T00:21:28.056Z,16.75
2022-12-01T00:21:39.822Z,16.48
2022-12-01T00:21:51.565Z,15.98
2022-12-01T00:22:03.477Z,15.20
2022-12-01T00:22:15.237Z,14.35
2022-12-01T00:22:27.044Z,13.95
2022-12-01T00:22:42.637Z,13.43
2022-12-01T00:22:54.489Z,12.32
2022-12-01T00:23:06.396Z,14.32
2022-12-01T00:23:18.198Z,13.90
2022-12-01T00:23:29.987Z,13.45
2022-12-01T00:23:49.951Z,12.60
2022-12-01T00:24:01.713Z,12.98
2022-12-01T00:24:13.907Z,13.35
2022-12-01T00:24:25.697Z,12.07
2022-12-01T00:24:37.489Z,13.13
2022-12-01T00:24:49.304Z,14.48
2022-12-01T00:25:01.069Z,14.93
2022-12-01T00:25:13.744Z,12.68
2022-12-01T00:25:25.516Z,12.43
2022-12-01T00:25:37.359Z,12.68
2022-12-01T00:25:49.358Z,13.13
2022-12-01T00:26:05.122Z,11.68
2022-12-01T00:26:17.933Z,14.15
2022-12-01T00:26:29.756Z,16.17
2022-12-01T00:26:41.541Z,15.48
2022-12-01T00:26:53.524Z,16.33
2022-12-01T00:27:05.412Z,17.08
2022-12-01T00:27:17.228Z,16.20
2022-12-01T00:27:29.011Z,16.15
2022-12-01T00:27:41.130Z,15.88
2022-12-01T00:27:53.217Z,16.10
2022-12-01T00:28:05.010Z,16.40
2022-12-01T00:28:16.876Z,16.15
2022-12-01T00:28:28.677Z,15.43
2022-12-01T00:28:40.464Z,13.80
2022-12-01T00:28:53.879Z,13.05
2022-12-01T00:29:05.663Z,13.73
2022-12-01T00:29:17.480Z,14.27
2022-12-01T00:29:29.301Z,14.48
2022-12-01T00:29:41.055Z,14.73
2022-12-01T00:29:53.566Z,15.38
2022-12-01T00:30:07.086Z,15.02
2022-12-01T00:30:20.397Z,15.52
2022-12-01T00:30:32.347Z,15.65
2022-12-01T00:30:44.177Z,14.10
2022-12-01T00:30:55.868Z,14.85
2022-12-01T00:31:11.790Z,15.35
2022-12-01T00:31:23.914Z,14.38
2022-12-01T00:31:36.032Z,14.07
2022-12-01T00:31:48.008Z,15.07
2022-12-01T00:31:59.781Z,15.80
2022-12-01T00:32:11.610Z,11.80
2022-12-01T00:32:23.420Z,12.85
2022-12-01T00:32:35.238Z,14.13
2022-12-01T00:32:47.323Z,14.05
2022-12-01T00:32:59.231Z,13.70
2022-12-01T00:33:10.998Z,14.38
2022-12-01T00:33:22.734Z,15.02
2022-12-01T00:33:34.518Z,15.02
2022-12-01T00:33:46.410Z,13.93
2022-12-01T00:33:58.131Z,12.68
2022-12-01T00:34:24.014Z,13.48
2022-12-01T00:34:37.882Z,14.18
2022-12-01T00:34:49.616Z,17.35
2022-12-01T00:35:01.479Z,18.20
2022-12-01T00:35:13.819Z,15.10
2022-12-01T00:35:25.630Z,13.68
2022-12-01T00:35:37.418Z,12.80
2022-12-01T00:35:49.160Z,13.35
2022-12-01T00:36:01.281Z,13.75
2022-12-01T00:36:13.062Z,14.13
2022-12-01T00:36:24.912Z,13.02
2022-12-01T00:36:36.671Z,14.90
2022-12-01T00:36:48.422Z,14.45
2022-12-01T00:37:00.406Z,14.68
2022-12-01T00:37:12.245Z,13.63
2022-12-01T00:37:24.113Z,13.30
2022-12-01T00:37:35.972Z,14.18
2022-12-01T00:37:47.704Z,15.23
2022-12-01T00:37:59.485Z,15.48
2022-12-01T00:38:11.221Z,14.38
2022-12-01T00:38:23.002Z,11.70
2022-12-01T00:38:34.902Z,11.63
2022-12-01T00:38:46.871Z,12.95
2022-12-01T00:38:58.722Z,13.80
2022-12-01T00:39:10.436Z,14.40
2022-12-01T00:39:22.243Z,13.82
2022-12-01T00:39:34.027Z,15.95
2022-12-01T00:39:46.578Z,15.18
2022-12-01T00:39:58.915Z,16.13
2022-12-01T00:40:11.458Z,16.15
2022-12-01T00:40:23.243Z,15.35
2022-12-01T00:40:35.038Z,14.02
2022-12-01T00:40:46.780Z,14.40
2022-12-01T00:40:58.524Z,13.98
2022-12-01T00:41:10.304Z,15.85
2022-12-01T00:41:22.524Z,16.38
2022-12-01T00:41:34.440Z,18.20
2022-12-01T00:41:46.247Z,16.77
2022-12-01T00:41:58.232Z,14.85
2022-12-01T00:42:13.227Z,13.70
2022-12-01T00:42:25.616Z,14.80
2022-12-01T00:42:37.524Z,13.45
2022-12-01T00:42:49.302Z,12.85
2022-12-01T00:43:01.067Z,14.25
2022-12-01T00:43:12.856Z,15.07
2022-12-01T00:43:25.049Z,14.52
2022-12-01T00:43:36.893Z,12.63
2022-12-01T00:43:48.689Z,12.75
2022-12-01T00:44:00.486Z,13.65
2022-12-01T00:44:12.284Z,13.70
2022-12-01T00:44:24.128Z,13.50
2022-12-01T00:44:35.903Z,12.18
2022-12-01T00:44:48.169Z,12.80
2022-12-01T00:44:59.916Z,12.95
2022-12-01T00:45:11.644Z,13.93
2022-12-01T00:45:23.405Z,14.00
2022-12-01T00:45:35.203Z,14.13
2022-12-01T00:45:47.085Z,13.77
2022-12-01T00:45:59.120Z,15.80
2022-12-01T00:46:10.979Z,16.45
2022-12-01T00:46:22.855Z,16.23
2022-12-01T00:46:34.734Z,14.68
2022-12-01T00:46:46.513Z,15.60
2022-12-01T00:46:58.258Z,16.02
2022-12-01T00:47:10.253Z,15.45
2022-12-01T00:47:22.008Z,15.38
2022-12-01T00:47:35.779Z,15.50
2022-12-01T00:47:47.574Z,14.40
2022-12-01T00:47:59.303Z,14.10
2022-12-01T00:48:11.026Z,13.00
2022-12-01T00:48:23.063Z,13.80
2022-12-01T00:48:34.935Z,17.90
2022-12-01T00:48:46.809Z,18.77
2022-12-01T00:48:58.540Z,16.13
2022-12-01T00:49:12.481Z,13.63
2022-12-01T00:49:24.245Z,14.15
2022-12-01T00:49:35.988Z,15.95
2022-12-01T00:49:50.089Z,15.88
2022-12-01T00:50:02.825Z,16.50
2022-12-01T00:50:14.626Z,14.77
2022-12-01T00:50:27.063Z,14.10
2022-12-01T00:50:38.810Z,14.75
2022-12-01T00:50:54.086Z,14.75
2022-12-01T00:51:06.008Z,14.65
2022-12-01T00:51:17.800Z,15.55
2022-12-01T00:51:29.619Z,15.15
2022-12-01T00:51:41.588Z,13.80
2022-12-01T00:51:53.436Z,12.77
2022-12-01T00:52:05.416Z,13.35
2022-12-01T00:52:17.567Z,14.43
2022-12-01T00:52:29.341Z,14.15
2022-12-01T00:52:41.086Z,12.35
2022-12-01T00:52:53.177Z,12.93
2022-12-01T00:53:04.925Z,13.75
2022-12-01T00:53:16.635Z,14.18
2022-12-01T00:53:28.379Z,13.77
2022-12-01T00:53:40.123Z,13.48
2022-12-01T00:53:51.855Z,13.45
2022-12-01T00:54:03.801Z,12.85
2022-12-01T00:54:15.521Z,14.63
2022-12-01T00:54:27.259Z,14.27
2022-12-01T00:54:39.629Z,13.82
2022-12-01T00:54:51.437Z,12.32
2022-12-01T00:55:03.352Z,13.68
2022-12-01T00:55:15.230Z,14.02
2022-12-01T00:55:27.061Z,13.65
2022-12-01T00:55:40.732Z,13.02
2022-12-01T00:55:53.968Z,13.42
2022-12-01T00:56:06.008Z,15.02
2022-12-01T00:56:17.757Z,16.45
2022-12-01T00:56:29.581Z,15.50
2022-12-01T00:56:41.317Z,15.00
2022-12-01T00:57:18.694Z,13.68
2022-12-01T00:57:30.493Z,13.98
2022-12-01T00:57:42.290Z,13.38
2022-12-01T00:57:54.056Z,14.88
2022-12-01T00:58:05.865Z,14.63
2022-12-01T00:58:17.648Z,14.85
2022-12-01T00:58:29.426Z,14.15
2022-12-01T00:58:41.165Z,14.38
2022-12-01T00:58:52.980Z,12.48
2022-12-01T00:59:04.747Z,12.13
2022-12-01T00:59:16.626Z,12.48
2022-12-01T00:59:28.430Z,14.23
2022-12-01T00:59:40.278Z,15.68
2022-12-01T00:59:52.114Z,16.02
2022-12-01T01:00:05.896Z,14.75
2022-12-01T01:00:18.071Z,15.30
2022-12-01T01:00:29.837Z,14.43
2022-12-01T01:00:42.805Z,12.98
2022-12-01T01:00:59.207Z,12.75
2022-12-01T01:01:11.019Z,12.82
2022-12-01T01:01:22.944Z,11.15
2022-12-01T01:01:35.179Z,11.70
2022-12-01T01:01:47.536Z,14.02
2022-12-01T01:01:59.447Z,15.93
2022-12-01T01:02:11.329Z,15.35
2022-12-01T01:02:23.143Z,13.27
2022-12-01T01:02:35.396Z,12.88
2022-12-01T01:02:47.250Z,13.27
2022-12-01T01:02:59.071Z,14.20
2022-12-01T01:03:11.127Z,14.52
2022-12-01T01:03:22.936Z,13.63
2022-12-01T01:03:34.880Z,13.60
2022-12-01T01:03:46.664Z,14.02
2022-12-01T01:03:58.618Z,14.10
2022-12-01T01:04:10.347Z,13.77
2022-12-01T01:04:22.283Z,14.30
2022-12-01T01:04:35.390Z,14.35
2022-12-01T01:04:47.194Z,14.77
2022-12-01T01:04:59.094Z,15.20
2022-12-01T01:05:10.922Z,14.15
2022-12-01T01:05:23.305Z,14.70
2022-12-01T01:05:40.342Z,14.82
2022-12-01T01:05:52.174Z,12.68
2022-12-01T01:06:09.257Z,13.20
2022-12-01T01:06:21.050Z,13.93
2022-12-01T01:06:32.864Z,12.20
2022-12-01T01:06:44.619Z,12.15
2022-12-01T01:06:56.365Z,11.65
2022-12-01T01:07:08.147Z,12.05
2022-12-01T01:07:20.392Z,12.80
2022-12-01T01:07:32.249Z,13.10
2022-12-01T01:07:44.041Z,13.90
2022-12-01T01:07:55.869Z,14.85
2022-12-01T01:08:08.952Z,16.13
2022-12-01T01:08:20.954Z,14.07
2022-12-01T01:08:32.716Z,12.38
2022-12-01T01:08:44.477Z,13.10
2022-12-01T01:08:56.299Z,14.43
2022-12-01T01:09:08.151Z,15.57
2022-12-01T01:09:19.878Z,14.70
2022-12-01T01:09:32.755Z,14.02
2022-12-01T01:09:44.465Z,14.55
2022-12-01T01:09:56.278Z,13.90
2022-12-01T01:10:08.688Z,14.43
2022-12-01T01:10:21.499Z,14.73
2022-12-01T01:10:33.383Z,15.68
2022-12-01T01:10:46.859Z,15.60
2022-12-01T01:10:59.957Z,15.18
2022-12-01T01:11:12.268Z,15.05
2022-12-01T01:11:24.006Z,13.88
2022-12-01T01:11:36.035Z,12.30
2022-12-01T01:11:47.821Z,11.68
2022-12-01T01:11:59.693Z,12.85
2022-12-01T01:12:11.466Z,13.77
2022-12-01T01:12:23.277Z,12.93
2022-12-01T01:12:35.045Z,13.00
2022-12-01T01:12:46.822Z,13.00
2022-12-01T01:12:58.568Z,15.05
2022-12-01T01:13:10.640Z,16.15
2022-12-01T01:13:22.355Z,16.52
2022-12-01T01:13:34.320Z,15.90
2022-12-01T01:13:46.151Z,14.40
2022-12-01T01:13:59.807Z,14.50
2022-12-01T01:14:11.601Z,13.93
2022-12-01T01:14:24.111Z,15.05
2022-12-01T01:14:35.868Z,15.30
2022-12-01T01:14:47.639Z,14.63
2022-12-01T01:14:59.438Z,13.88
2022-12-01T01:15:11.248Z,14.43
2022-12-01T01:15:23.070Z,14.65
2022-12-01T01:15:34.828Z,15.10
2022-12-01T01:15:56.899Z,14.60
2022-12-01T01:16:16.927Z,15.18
2022-12-01T01:16:28.748Z,12.07
2022-12-01T01:16:40.495Z,11.27
2022-12-01T01:16:52.416Z,11.63
2022-12-01T01:17:04.363Z,13.25
2022-12-01T01:17:16.136Z,13.85
2022-12-01T01:17:27.898Z,12.73
2022-12-01T01:17:39.626Z,13.50
2022-12-01T01:17:51.360Z,14.10
2022-12-01T01:18:03.336Z,14.75
2022-12-01T01:18:15.122Z,14.07
2022-12-01T01:18:27.123Z,14.98
2022-12-01T01:18:38.858Z,15.85
2022-12-01T01:18:50.668Z,15.27
2022-12-01T01:19:02.511Z,13.23
2022-12-01T01:19:14.261Z,12.65
2022-12-01T01:19:26.068Z,12.15
2022-12-01T01:19:37.835Z,13.07
2022-12-01T01:19:49.797Z,13.30
2022-12-01T01:20:01.836Z,12.88
2022-12-01T01:20:13.866Z,13.10
2022-12-01T01:20:25.665Z,13.68
2022-12-01T01:20:37.463Z,13.93
2022-12-01T01:20:58.938Z,15.40
2022-12-01T01:21:15.645Z,15.25
2022-12-01T01:21:27.542Z,13.63
2022-12-01T01:21:39.400Z,14.52
2022-12-01T01:21:51.148Z,14.20
2022-12-01T01:22:02.928Z,14.00
2022-12-01T01:22:14.774Z,13.65
2022-12-01T01:22:26.517Z,13.85
2022-12-01T01:22:38.320Z,14.07
2022-12-01T01:22:50.136Z,14.65
2022-12-01T01:23:01.962Z,15.75
2022-12-01T01:23:13.680Z,16.25
2022-12-01T01:23:25.537Z,15.63
2022-12-01T01:23:37.470Z,14.30
2022-12-01T01:23:49.999Z,14.05
2022-12-01T01:24:01.829Z,15.00
2022-12-01T01:24:13.559Z,13.88
2022-12-01T01:24:25.356Z,12.88
2022-12-01T01:24:37.332Z,13.68
2022-12-01T01:24:49.523Z,15.45
2022-12-01T01:25:01.263Z,15.93
2022-12-01T01:25:13.105Z,13.40
2022-12-01T01:25:24.967Z,11.75
2022-12-01T01:25:36.684Z,13.05
2022-12-01T01:25:48.564Z,13.82
2022-12-01T01:26:18.157Z,14.75
2022-12-01T01:26:31.266Z,13.05
2022-12-01T01:26:43.103Z,13.30
2022-12-01T01:26:55.399Z,14.18
2022-12-01T01:27:07.181Z,13.98
2022-12-01T01:27:18.915Z,13.65
2022-12-01T01:27:30.619Z,12.00
2022-12-01T01:27:42.320Z,12.70
2022-12-01T01:27:54.082Z,12.25
2022-12-01T01:28:05.839Z,11.63
2022-12-01T01:28:19.741Z,12.15
2022-12-01T01:28:31.853Z,13.77
2022-12-01T01:28:43.704Z,14.57
2022-12-01T01:28:59.110Z,14.38
2022-12-01T01:29:10.836Z,11.35
2022-12-01T01:29:22.583Z,12.57
2022-12-01T01:29:34.416Z,13.60
2022-12-01T01:29:46.414Z,14.05
2022-12-01T01:29:58.370Z,13.60
2022-12-01T01:30:11.032Z,12.52
2022-12-01T01:30:22.829Z,13.82
2022-12-01T01:30:34.694Z,15.05
2022-12-01T01:30:46.861Z,13.35
2022-12-01T01:30:59.307Z,13.48
2022-12-01T01:31:14.272Z,12.18
2022-12-01T01:31:27.233Z,12.57
2022-12-01T01:31:39.195Z,12.85
2022-12-01T01:31:51.206Z,13.00
2022-12-01T01:32:04.204Z,12.85
2022-12-01T01:32:16.027Z,13.60
2022-12-01T01:32:27.833Z,13.35
2022-12-01T01:32:39.579Z,14.27
2022-12-01T01:32:51.360Z,15.48
2022-12-01T01:33:03.223Z,16.52
2022-12-01T01:33:15.017Z,14.18
2022-12-01T01:33:26.798Z,14.85
2022-12-01T01:33:38.624Z,14.73
2022-12-01T01:33:50.446Z,15.82
2022-12-01T01:34:03.289Z,14.07
2022-12-01T01:34:15.058Z,12.55
2022-12-01T01:34:26.796Z,14.43
2022-12-01T01:34:38.556Z,15.35
2022-12-01T01:34:50.329Z,13.93
2022-12-01T01:35:02.109Z,12.73
2022-12-01T01:35:13.924Z,13.57
2022-12-01T01:35:25.703Z,15.40
2022-12-01T01:35:37.474Z,14.40
2022-12-01T01:35:49.286Z,12.88
2022-12-01T01:36:01.412Z,13.43
2022-12-01T01:36:14.185Z,16.05
2022-12-01T01:36:26.113Z,15.35
2022-12-01T01:36:37.878Z,14.75
2022-12-01T01:36:49.831Z,12.85
2022-12-01T01:37:01.605Z,13.02
2022-12-01T01:37:13.384Z,12.68
2022-12-01T01:37:25.189Z,11.82
2022-12-01T01:37:36.973Z,12.32
2022-12-01T01:37:50.804Z,12.82
2022-12-01T01:38:02.599Z,14.50
2022-12-01T01:38:14.412Z,13.23
2022-12-01T01:38:26.981Z,13.32
2022-12-01T01:38:38.935Z,14.60
2022-12-01T01:38:55.177Z,15.85
2022-12-01T01:39:07.000Z,13.70
2022-12-01T01:39:18.832Z,12.25
2022-12-01T01:39:30.689Z,12.05
2022-12-01T01:39:42.502Z,13.38
2022-12-01T01:39:54.253Z,12.40
2022-12-01T01:40:07.283Z,13.93
2022-12-01T01:40:19.131Z,14.25
2022-12-01T01:40:30.852Z,14.07
2022-12-01T01:40:46.807Z,12.75
2022-12-01T01:40:58.622Z,14.35
2022-12-01T01:41:10.706Z,14.90
2022-12-01T01:41:22.874Z,14.10
2022-12-01T01:41:34.626Z,13.23
2022-12-01T01:41:46.336Z,13.55
2022-12-01T01:41:58.088Z,13.38
2022-12-01T01:42:20.222Z,15.68
2022-12-01T01:42:32.027Z,16.75
2022-12-01T01:42:43.834Z,14.40
2022-12-01T01:42:55.544Z,12.45
2022-12-01T01:43:18.495Z,13.00
2022-12-01T01:43:42.336Z,13.05
2022-12-01T01:43:57.144Z,14.25
2022-12-01T01:44:52.899Z,13.80
2022-12-01T01:45:11.192Z,13.52
2022-12-01T01:45:29.347Z,12.82
2022-12-01T01:45:41.132Z,13.50
2022-12-01T01:45:52.951Z,13.45
2022-12-01T01:46:09.136Z,13.57
2022-12-01T01:46:34.391Z,12.95
2022-12-01T01:46:46.185Z,14.40
2022-12-01T01:46:57.939Z,14.57
2022-12-01T01:47:09.859Z,12.60
2022-12-01T01:47:38.458Z,11.70
2022-12-01T01:47:51.892Z,12.85
2022-12-01T01:48:04.478Z,12.32
2022-12-01T01:48:16.280Z,11.60
2022-12-01T01:48:28.009Z,12.88
2022-12-01T01:48:40.674Z,14.40
2022-12-01T01:49:04.415Z,13.82
2022-12-01T01:49:16.164Z,13.63
2022-12-01T01:49:27.983Z,14.10
2022-12-01T01:49:40.116Z,16.60
2022-12-01T01:49:52.273Z,17.00
2022-12-01T01:50:14.305Z,16.65
2022-12-01T01:50:27.407Z,19.77
2022-12-01T01:50:39.207Z,20.50
2022-12-01T01:50:50.993Z,20.38
2022-12-01T01:51:02.734Z,14.38
2022-12-01T01:51:15.013Z,13.82
2022-12-01T01:51:38.451Z,16.55
2022-12-01T01:51:51.684Z,19.90
2022-12-01T01:52:04.649Z,19.27
2022-12-01T01:52:16.663Z,23.15
2022-12-01T01:52:28.380Z,24.75
2022-12-01T01:52:48.876Z,22.05
2022-12-01T01:53:08.612Z,17.02
2022-12-01T01:53:20.387Z,18.33
2022-12-01T01:53:32.102Z,15.90
2022-12-01T01:53:43.905Z,15.15
2022-12-01T01:53:58.549Z,13.73
2022-12-01T01:54:17.335Z,13.18
2022-12-01T01:54:33.629Z,15.68
2022-12-01T01:54:48.168Z,15.40
2022-12-01T01:54:59.891Z,13.60
2022-12-01T01:55:12.241Z,13.63
2022-12-01T01:55:24.032Z,13.25
2022-12-01T01:55:36.128Z,14.77
2022-12-01T01:55:47.885Z,16.60
2022-12-01T01:55:59.829Z,16.58
2022-12-01T01:56:11.614Z,14.77
2022-12-01T01:56:23.615Z,14.75
2022-12-01T01:56:36.427Z,14.02
2022-12-01T01:56:48.539Z,12.88
2022-12-01T01:57:00.993Z,13.00
2022-12-01T01:57:14.489Z,14.32
2022-12-01T01:57:30.759Z,13.60
2022-12-01T01:57:42.586Z,11.98
2022-12-01T01:57:54.366Z,14.32
2022-12-01T01:58:08.129Z,15.25
2022-12-01T01:58:19.895Z,13.48
2022-12-01T01:58:32.068Z,12.50
2022-12-01T01:58:43.884Z,12.93
2022-12-01T01:58:55.739Z,13.77
2022-12-01T01:59:07.492Z,12.27
2022-12-01T01:59:27.213Z,11.32
2022-12-01T01:59:49.123Z,11.82
2022-12-01T02:00:12.962Z,11.65
2022-12-01T02:00:24.867Z,11.73
2022-12-01T02:00:38.217Z,11.32
2022-12-01T02:00:50.091Z,12.73
2022-12-01T02:01:02.011Z,13.10
2022-12-01T02:01:13.911Z,12.65
2022-12-01T02:01:25.840Z,12.60
2022-12-01T02:01:37.609Z,12.68
2022-12-01T02:01:52.853Z,12.45
2022-12-01T02:02:09.078Z,12.57
2022-12-01T02:02:21.011Z,12.82
2022-12-01T02:02:33.118Z,12.73
2022-12-01T02:02:46.313Z,12.13
2022-12-01T02:02:58.234Z,14.32
2022-12-01T02:03:11.088Z,13.43
2022-12-01T02:03:22.903Z,11.68
2022-12-01T02:03:34.744Z,11.65
2022-12-01T02:03:46.606Z,13.88
2022-12-01T02:03:58.391Z,14.27
2022-12-01T02:04:10.185Z,13.38
2022-12-01T02:04:21.904Z,13.55
2022-12-01T02:04:35.572Z,13.00
2022-12-01T02:04:50.944Z,12.52
2022-12-01T02:05:02.764Z,12.60
2022-12-01T02:05:23.746Z,13.43
2022-12-01T02:05:35.662Z,13.68
2022-12-01T02:05:47.483Z,12.45
2022-12-01T02:06:03.440Z,11.65
2022-12-01T02:06:16.810Z,10.82
2022-12-01T02:06:28.676Z,11.13
2022-12-01T02:06:40.435Z,11.45
2022-12-01T02:06:52.223Z,10.95
2022-12-01T02:07:04.771Z,10.77
2022-12-01T02:07:18.390Z,11.23
2022-12-01T02:07:30.223Z,14.27
2022-12-01T02:07:42.154Z,14.75
2022-12-01T02:07:56.081Z,13.45
2022-12-01T02:08:12.457Z,10.90
2022-12-01T02:08:24.321Z,12.23
2022-12-01T02:08:38.036Z,12.23
2022-12-01T02:08:49.840Z,11.57
2022-12-01T02:09:01.650Z,12.75
2022-12-01T02:09:13.443Z,12.90
2022-12-01T02:09:25.516Z,12.52
2022-12-01T02:09:37.248Z,12.55
2022-12-01T02:09:49.356Z,12.77
2022-12-01T02:10:01.328Z,13.82
2022-12-01T02:10:13.698Z,12.48
2022-12-01T02:10:51.029Z,12.65
2022-12-01T02:11:48.647Z,10.40
2022-12-01T02:12:18.963Z,11.57
2022-12-01T02:12:40.739Z,12.95
2022-12-01T02:13:10.325Z,11.70
2022-12-01T02:13:55.278Z,12.32
2022-12-01T02:14:13.710Z,9.77
2022-12-01T02:15:06.164Z,10.88
2022-12-01T02:15:45.943Z,10.45
2022-12-01T02:16:20.689Z,10.35
2022-12-01T02:16:48.399Z,13.18
2022-12-01T02:17:09.135Z,11.70
2022-12-01T02:17:52.176Z,10.52
2022-12-01T02:18:18.990Z,11.15
2022-12-01T02:18:48.495Z,12.38
2022-12-01T02:19:48.506Z,9.65
2022-12-01T02:20:32.357Z,10.32
2022-12-01T02:21:21.499Z,11.32
2022-12-01T02:22:03.556Z,10.65
2022-12-01T02:22:36.112Z,11.40
2022-12-01T02:22:54.404Z,8.95
2022-12-01T02:23:46.229Z,9.70
2022-12-01T02:24:46.780Z,9.60
2022-12-01T02:25:21.608Z,9.93
2022-12-01T02:26:44.315Z,12.48
2022-12-01T02:27:34.603Z,9.93
2022-12-01T02:28:14.961Z,9.13
2022-12-01T02:28:43.248Z,11.88
2022-12-01T02:29:14.161Z,10.38
2022-12-01T02:29:43.827Z,10.13
2022-12-01T02:30:30.017Z,10.48
2022-12-01T02:30:49.624Z,9.57
2022-12-01T02:31:16.497Z,10.30
2022-12-01T02:31:57.224Z,10.30
2022-12-01T02:33:11.925Z,9.13
2022-12-01T02:33:32.723Z,9.40
2022-12-01T02:34:02.163Z,8.73
2022-12-01T02:34:26.300Z,8.52
2022-12-01T02:35:10.628Z,8.90
2022-12-01T02:35:30.668Z,8.98
2022-12-01T02:36:01.797Z,9.02
2022-12-01T02:36:19.787Z,10.52
2022-12-01T02:37:06.500Z,11.18
2022-12-01T02:37:35.887Z,9.52
2022-12-01T02:38:29.284Z,10.82
2022-12-01T02:38:52.039Z,9.13
2022-12-01T02:39:13.491Z,9.80
2022-12-01T02:39:33.693Z,10.73
2022-12-01T02:40:02.449Z,9.88
2022-12-01T02:40:34.266Z,10.23
2022-12-01T02:41:06.505Z,9.52
2022-12-01T02:41:37.392Z,10.40
2022-12-01T02:41:55.490Z,9.75
2022-12-01T02:42:34.580Z,8.30
2022-12-01T02:44:07.312Z,10.85
2022-12-01T02:44:24.644Z,10.65
2022-12-01T02:44:40.141Z,9.00
2022-12-01T02:44:51.904Z,9.77
2022-12-01T02:45:10.657Z,9.98
2022-12-01T02:58:57.372Z,13.33
2022-12-01T02:59:14.189Z,11.00
2022-12-01T02:59:26.457Z,11.30
2022-12-01T02:59:39.081Z,12.05
2022-12-01T02:59:54.610Z,12.95
2022-12-01T03:00:33.645Z,11.55
2022-12-01T03:01:21.063Z,12.27
2022-12-01T03:02:43.164Z,11.45
2022-12-01T03:05:01.292Z,11.00
2022-12-01T03:05:29.380Z,10.95
2022-12-01T03:05:52.984Z,9.50
2022-12-01T03:06:17.061Z,10.27
2022-12-01T03:06:49.887Z,11.30
2022-12-01T03:07:37.653Z,12.55
2022-12-01T03:08:13.708Z,13.90
2022-12-01T03:08:47.961Z,12.55
2022-12-01T03:09:12.927Z,14.02
2022-12-01T03:09:46.051Z,12.68
2022-12-01T03:10:13.406Z,15.20
2022-12-01T03:10:40.073Z,11.27
2022-12-01T03:10:58.388Z,10.82
2022-12-01T03:11:26.790Z,10.90
2022-12-01T03:12:09.562Z,10.57
2022-12-01T03:12:56.591Z,12.45
2022-12-01T03:13:54.060Z,12.40
2022-12-01T03:14:26.378Z,11.07
2022-12-01T03:15:10.013Z,10.18
2022-12-01T03:15:42.441Z,13.18
2022-12-01T03:16:22.986Z,12.63
2022-12-01T03:16:51.042Z,12.00
2022-12-01T03:17:11.155Z,11.52
2022-12-01T03:17:28.773Z,12.38
2022-12-01T03:17:48.830Z,12.55
2022-12-01T03:18:22.440Z,11.93
2022-12-01T03:18:40.923Z,9.90
2022-12-01T03:19:03.296Z,10.80
2022-12-01T03:19:21.195Z,12.52
2022-12-01T03:19:54.013Z,12.60
2022-12-01T03:20:20.617Z,16.52
2022-12-01T03:20:42.561Z,24.05
2022-12-01T03:21:40.567Z,16.35
2022-12-01T03:22:12.824Z,12.10
2022-12-01T03:22:32.513Z,14.07
2022-12-01T03:22:54.145Z,12.57
2022-12-01T03:23:16.728Z,11.63
2022-12-01T03:23:31.271Z,12.00
2022-12-01T03:24:05.747Z,12.48
2022-12-01T03:24:19.525Z,12.45
2022-12-01T03:24:33.037Z,12.88
2022-12-01T03:24:47.159Z,11.80
2022-12-01T03:24:58.892Z,12.32
2022-12-01T03:25:12.009Z,13.15
2022-12-01T03:25:24.501Z,13.48
2022-12-01T03:25:37.926Z,11.15
2022-12-01T03:25:51.923Z,12.23
2022-12-01T03:26:06.974Z,13.20
2022-12-01T03:26:20.223Z,10.96
2022-12-01T03:26:32.865Z,10.35
2022-12-01T03:26:47.419Z,12.88
2022-12-01T03:27:00.103Z,16.40
2022-12-01T03:27:12.219Z,16.70
2022-12-01T03:27:27.994Z,14.68
2022-12-01T03:28:00.583Z,13.05
2022-12-01T03:28:22.916Z,12.85
2022-12-01T03:28:42.012Z,12.93
2022-12-01T03:28:57.952Z,11.68
2022-12-01T03:29:31.598Z,10.85
2022-12-01T03:29:45.631Z,13.13
2022-12-01T03:29:58.836Z,13.80
2022-12-01T03:30:11.440Z,12.90
2022-12-01T03:30:25.317Z,11.50
2022-12-01T03:30:37.304Z,10.82
2022-12-01T03:30:51.045Z,10.95
2022-12-01T03:31:07.052Z,11.57
2022-12-01T03:31:23.007Z,12.30
2022-12-01T03:31:42.677Z,11.75
2022-12-01T03:31:59.093Z,10.45
2022-12-01T03:32:20.439Z,12.02
2022-12-01T03:32:43.035Z,12.35
2022-12-01T03:33:09.682Z,13.38
2022-12-01T03:33:25.391Z,11.68
2022-12-01T03:33:46.413Z,11.55
2022-12-01T03:34:05.115Z,10.23
2022-12-01T03:34:47.631Z,11.35
2022-12-01T03:35:31.512Z,12.27
2022-12-01T03:35:54.129Z,11.90
2022-12-01T03:36:16.540Z,12.07
2022-12-01T03:36:35.739Z,10.00
2022-12-01T03:36:51.917Z,10.43
2022-12-01T03:37:12.275Z,11.25
2022-12-01T03:37:45.103Z,13.95
2022-12-01T03:38:23.926Z,10.70
2022-12-01T03:38:36.303Z,11.42
2022-12-01T03:38:52.626Z,12.13
2022-12-01T03:39:08.328Z,11.23
2022-12-01T03:39:23.802Z,10.88
2022-12-01T03:39:36.250Z,11.57
2022-12-01T03:39:48.625Z,11.88
2022-12-01T03:40:01.428Z,12.15
2022-12-01T03:40:18.092Z,12.27
2022-12-01T03:40:30.128Z,12.02
2022-12-01T03:40:41.915Z,10.55
2022-12-01T03:41:01.839Z,10.18
2022-12-01T03:41:18.391Z,11.32
2022-12-01T03:41:37.131Z,12.93
2022-12-01T03:41:59.436Z,12.40
2022-12-01T03:42:15.541Z,12.55